Terminal Aerodrome Forecast
Issued by NWS

Home | Current Version | Previous Version | Text Only | Print | Product List | Glossary On
Versions: 1 2 3 4 5 6 7 8 9 10 11 12
000
FTPA31 PHFO 221742
TAFHOG
TAF
PHOG 221742Z 2218/2318 15005KT P6SM FEW045
     FM222000 01011KT P6SM FEW045
     FM230200 05008KT P6SM FEW045
     FM231500 18005KT P6SM VCSH FEW025 SCT045
      AMD LTD TO VIS AND WIND 2309/2316=

USA.gov is the U.S. government's official web portal to all federal, state and local government web resources and services.